TimeMDT,TemperatureF,Dew PointF,Humidity,Sea Level PressureIn,VisibilityMPH,Wind Direction,Wind SpeedMPH,Gust SpeedMPH,PrecipitationIn,Events,Conditions,WindDirDegrees,DateUTC
12:53 AM,66.9,51.1,57,30.00,10.0,SE,4.6,-,N/A,,Clear,140,2013-08-30 06:53:00
1:53 AM,62.1,50.0,65,30.01,10.0,Calm,Calm,-,N/A,,Clear,0,2013-08-30 07:53:00
2:53 AM,60.1,50.0,69,30.00,10.0,South,6.9,-,N/A,,Clear,180,2013-08-30 08:53:00
3:53 AM,60.1,50.0,69,30.00,10.0,Calm,Calm,-,N/A,,Clear,0,2013-08-30 09:53:00
4:53 AM,60.1,48.0,64,29.99,10.0,SSE,5.8,-,N/A,,Clear,160,2013-08-30 10:53:00
5:53 AM,62.1,51.1,67,29.99,10.0,SE,6.9,-,N/A,,Clear,130,2013-08-30 11:53:00
6:53 AM,59.0,48.9,69,30.04,10.0,SE,3.5,-,N/A,,Clear,140,2013-08-30 12:53:00
7:53 AM,64.0,50.0,60,30.05,10.0,Calm,Calm,-,N/A,,Clear,0,2013-08-30 13:53:00
8:53 AM,66.9,48.9,52,30.06,10.0,WSW,3.5,-,N/A,,Clear,240,2013-08-30 14:53:00
9:53 AM,78.1,48.9,36,30.02,10.0,Calm,Calm,-,N/A,,Clear,0,2013-08-30 15:53:00
10:53 AM,84.9,46.0,26,29.99,10.0,Calm,Calm,-,N/A,,Clear,0,2013-08-30 16:53:00
11:53 AM,90.0,43.0,19,29.97,10.0,Calm,Calm,-,N/A,,Clear,0,2013-08-30 17:53:00
12:53 PM,93.9,37.9,14,29.94,10.0,Calm,Calm,-,N/A,,Clear,0,2013-08-30 18:53:00
1:53 PM,95.0,37.0,13,29.91,10.0,NNE,5.8,-,N/A,,Clear,20,2013-08-30 19:53:00
2:53 PM,95.0,33.1,11,29.88,10.0,Variable,3.5,-,N/A,,Clear,0,2013-08-30 20:53:00
3:53 PM,93.9,37.0,14,29.87,10.0,Variable,3.5,-,N/A,,Clear,0,2013-08-30 21:53:00
4:49 PM,84.2,42.8,23,30.03,10.0,NW,25.3,31.1,N/A,Thunderstorm,Thunderstorm,320,2013-08-30 22:49:00
4:53 PM,82.9,46.0,27,29.90,10.0,WNW,20.7,31.1,N/A,Thunderstorm,Thunderstorm,300,2013-08-30 22:53:00
5:16 PM,84.2,46.4,27,30.03,10.0,North,11.5,-,N/A,,Partly Cloudy,350,2013-08-30 23:16:00
5:53 PM,84.9,45.0,25,29.90,10.0,North,6.9,-,N/A,,Partly Cloudy,10,2013-08-30 23:53:00
6:53 PM,82.9,50.0,32,29.89,10.0,NNE,4.6,-,N/A,,Clear,20,2013-08-31 00:53:00
7:53 PM,77.0,48.0,36,29.89,10.0,Calm,Calm,-,N/A,,Clear,0,2013-08-31 01:53:00
8:53 PM,73.0,46.0,38,29.90,10.0,South,5.8,-,N/A,,Clear,190,2013-08-31 02:53:00
9:53 PM,72.0,45.0,38,29.88,10.0,SSE,8.1,-,N/A,,Clear,160,2013-08-31 03:53:00
10:53 PM,70.0,44.1,39,29.87,10.0,South,8.1,-,N/A,,Clear,180,2013-08-31 04:53:00
11:53 PM,68.0,44.1,42,29.86,10.0,South,10.4,-,N/A,,Clear,170,2013-08-31 05:53:00